Terminal Aerodrome Forecast
Issued by NWS Charleston, SC

Home | Current Version | Previous Version | Text Only | Print | Product List | Glossary On
Versions: 1 2 3 4 5 6 7 8 9 10 11 12 13 14 15 16 17
000
FTUS42 KCHS 302325
TAFCHS
TAF
KCHS 302325Z 0100/0124 18012KT P6SM SCT040
     FM011100 18010KT P6SM SCT020 BKN030
     FM011300 19015G23KT P6SM SCT025 BKN035
     FM011900 19020G27KT P6SM SCT040 BKN200=

USA.gov is the U.S. government's official web portal to all federal, state and local government web resources and services.